sensor_id;sensor_type;location;lat;lon;timestamp;P1;durP1;ratioP1;P2;durP2;ratioP2
43990;SDS011;29654;50.784;20.604;2023-05-10T00:01:33;5.00;;;3.97;;
43990;SDS011;29654;50.784;20.604;2023-05-10T00:06:36;6.80;;;3.97;;
43990;SDS011;29654;50.784;20.604;2023-05-10T00:11:38;4.60;;;3.40;;
43990;SDS011;29654;50.784;20.604;2023-05-10T00:16:42;3.97;;;3.58;;
43990;SDS011;29654;50.784;20.604;2023-05-10T00:21:45;3.72;;;3.25;;
43990;SDS011;29654;50.784;20.604;2023-05-10T00:26:48;3.95;;;3.13;;
43990;SDS011;29654;50.784;20.604;2023-05-10T00:31:52;5.03;;;3.60;;
43990;SDS011;29654;50.784;20.604;2023-05-10T00:36:54;4.80;;;3.28;;
43990;SDS011;29654;50.784;20.604;2023-05-10T00:41:57;6.38;;;3.60;;
43990;SDS011;29654;50.784;20.604;2023-05-10T00:47:02;3.72;;;3.30;;
43990;SDS011;29654;50.784;20.604;2023-05-10T00:52:04;4.55;;;3.67;;
43990;SDS011;29654;50.784;20.604;2023-05-10T00:57:07;4.15;;;3.08;;
43990;SDS011;29654;50.784;20.604;2023-05-10T01:02:11;4.63;;;3.28;;
43990;SDS011;29654;50.784;20.604;2023-05-10T01:07:14;4.75;;;3.03;;
43990;SDS011;29654;50.784;20.604;2023-05-10T01:12:17;5.63;;;3.38;;
43990;SDS011;29654;50.784;20.604;2023-05-10T01:17:21;7.25;;;3.40;;
43990;SDS011;29654;50.784;20.604;2023-05-10T01:22:36;5.20;;;3.63;;
43990;SDS011;29654;50.784;20.604;2023-05-10T01:33:51;4.68;;;3.08;;
43990;SDS011;29654;50.784;20.604;2023-05-10T01:39:01;4.03;;;2.85;;
43990;SDS011;29654;50.784;20.604;2023-05-10T01:44:10;3.47;;;2.53;;
43990;SDS011;29654;50.784;20.604;2023-05-10T01:49:23;3.22;;;2.88;;
43990;SDS011;29654;50.784;20.604;2023-05-10T01:54:28;4.50;;;3.15;;
43990;SDS011;29654;50.784;20.604;2023-05-10T01:59:33;5.57;;;3.10;;
43990;SDS011;29654;50.784;20.604;2023-05-10T02:04:42;3.80;;;3.40;;
43990;SDS011;29654;50.784;20.604;2023-05-10T02:09:46;4.30;;;2.97;;
43990;SDS011;29654;50.784;20.604;2023-05-10T02:14:50;4.07;;;3.22;;
43990;SDS011;29654;50.784;20.604;2023-05-10T02:19:55;4.80;;;3.28;;
43990;SDS011;29654;50.784;20.604;2023-05-10T02:25:00;4.47;;;2.95;;
43990;SDS011;29654;50.784;20.604;2023-05-10T02:30:05;4.20;;;2.88;;
43990;SDS011;29654;50.784;20.604;2023-05-10T02:35:11;4.63;;;2.78;;
43990;SDS011;29654;50.784;20.604;2023-05-10T02:40:15;4.43;;;3.03;;
43990;SDS011;29654;50.784;20.604;2023-05-10T02:45:20;6.00;;;2.90;;
43990;SDS011;29654;50.784;20.604;2023-05-10T02:50:29;5.93;;;3.00;;
43990;SDS011;29654;50.784;20.604;2023-05-10T02:55:35;3.00;;;2.63;;
43990;SDS011;29654;50.784;20.604;2023-05-10T03:00:41;3.13;;;2.80;;
43990;SDS011;29654;50.784;20.604;2023-05-10T03:05:45;4.05;;;2.80;;
43990;SDS011;29654;50.784;20.604;2023-05-10T03:10:50;3.55;;;2.85;;
43990;SDS011;29654;50.784;20.604;2023-05-10T03:16:05;5.10;;;3.05;;
43990;SDS011;29654;50.784;20.604;2023-05-10T03:21:13;5.00;;;2.90;;
43990;SDS011;29654;50.784;20.604;2023-05-10T03:26:23;4.95;;;3.40;;
43990;SDS011;29654;50.784;20.604;2023-05-10T03:31:37;3.90;;;2.60;;
43990;SDS011;29654;50.784;20.604;2023-05-10T03:36:42;3.88;;;2.80;;
43990;SDS011;29654;50.784;20.604;2023-05-10T03:41:45;5.07;;;2.97;;
43990;SDS011;29654;50.784;20.604;2023-05-10T03:46:48;4.18;;;3.33;;
43990;SDS011;29654;50.784;20.604;2023-05-10T03:51:52;8.15;;;3.22;;
43990;SDS011;29654;50.784;20.604;2023-05-10T03:56:54;5.15;;;3.30;;
43990;SDS011;29654;50.784;20.604;2023-05-10T04:01:57;2.85;;;2.60;;
43990;SDS011;29654;50.784;20.604;2023-05-10T04:07:01;3.53;;;3.22;;
43990;SDS011;29654;50.784;20.604;2023-05-10T04:12:05;4.20;;;2.60;;
43990;SDS011;29654;50.784;20.604;2023-05-10T04:17:08;6.95;;;3.25;;
43990;SDS011;29654;50.784;20.604;2023-05-10T04:22:12;3.22;;;2.92;;
43990;SDS011;29654;50.784;20.604;2023-05-10T04:27:14;4.13;;;3.30;;
43990;SDS011;29654;50.784;20.604;2023-05-10T04:32:17;6.50;;;3.80;;
43990;SDS011;29654;50.784;20.604;2023-05-10T04:37:21;3.70;;;2.80;;
43990;SDS011;29654;50.784;20.604;2023-05-10T04:42:24;4.45;;;3.00;;
43990;SDS011;29654;50.784;20.604;2023-05-10T04:47:27;4.40;;;3.08;;
43990;SDS011;29654;50.784;20.604;2023-05-10T04:52:30;3.88;;;3.08;;
43990;SDS011;29654;50.784;20.604;2023-05-10T04:57:33;3.75;;;3.00;;
43990;SDS011;29654;50.784;20.604;2023-05-10T05:02:36;3.42;;;2.70;;
43990;SDS011;29654;50.784;20.604;2023-05-10T05:07:40;3.45;;;2.30;;
43990;SDS011;29654;50.784;20.604;2023-05-10T05:12:46;5.45;;;2.50;;
43990;SDS011;29654;50.784;20.604;2023-05-10T05:17:48;4.43;;;2.75;;
43990;SDS011;29654;50.784;20.604;2023-05-10T05:22:52;2.53;;;2.20;;
43990;SDS011;29654;50.784;20.604;2023-05-10T05:27:55;3.80;;;2.90;;
43990;SDS011;29654;50.784;20.604;2023-05-10T05:32:57;3.58;;;2.17;;
43990;SDS011;29654;50.784;20.604;2023-05-10T05:38:01;4.85;;;2.70;;
43990;SDS011;29654;50.784;20.604;2023-05-10T05:43:04;2.65;;;2.13;;
43990;SDS011;29654;50.784;20.604;2023-05-10T05:48:06;3.03;;;2.08;;
43990;SDS011;29654;50.784;20.604;2023-05-10T05:53:10;2.72;;;2.40;;
43990;SDS011;29654;50.784;20.604;2023-05-10T05:58:14;2.38;;;2.20;;
43990;SDS011;29654;50.784;20.604;2023-05-10T06:03:16;2.90;;;2.10;;
43990;SDS011;29654;50.784;20.604;2023-05-10T06:08:20;2.83;;;2.35;;
43990;SDS011;29654;50.784;20.604;2023-05-10T06:13:23;2.67;;;1.95;;
43990;SDS011;29654;50.784;20.604;2023-05-10T06:18:29;3.15;;;1.73;;
43990;SDS011;29654;50.784;20.604;2023-05-10T06:23:33;3.60;;;2.20;;
43990;SDS011;29654;50.784;20.604;2023-05-10T06:28:36;2.97;;;2.17;;
43990;SDS011;29654;50.784;20.604;2023-05-10T06:33:39;7.28;;;2.20;;
43990;SDS011;29654;50.784;20.604;2023-05-10T06:38:43;2.15;;;1.92;;
43990;SDS011;29654;50.784;20.604;2023-05-10T06:43:45;3.65;;;2.28;;
43990;SDS011;29654;50.784;20.604;2023-05-10T06:48:48;3.13;;;2.17;;
43990;SDS011;29654;50.784;20.604;2023-05-10T06:53:52;2.65;;;2.20;;
43990;SDS011;29654;50.784;20.604;2023-05-10T06:58:54;4.57;;;2.10;;
43990;SDS011;29654;50.784;20.604;2023-05-10T07:03:57;2.42;;;1.92;;
43990;SDS011;29654;50.784;20.604;2023-05-10T07:09:01;2.70;;;2.08;;
43990;SDS011;29654;50.784;20.604;2023-05-10T07:14:03;2.40;;;2.20;;
43990;SDS011;29654;50.784;20.604;2023-05-10T07:19:06;4.25;;;2.67;;
43990;SDS011;29654;50.784;20.604;2023-05-10T07:24:10;3.33;;;2.40;;
43990;SDS011;29654;50.784;20.604;2023-05-10T07:29:13;2.35;;;2.15;;
43990;SDS011;29654;50.784;20.604;2023-05-10T07:34:15;2.45;;;2.25;;
43990;SDS011;29654;50.784;20.604;2023-05-10T07:39:19;2.30;;;2.00;;
43990;SDS011;29654;50.784;20.604;2023-05-10T07:44:22;2.28;;;2.08;;
43990;SDS011;29654;50.784;20.604;2023-05-10T07:49:25;3.88;;;2.30;;
43990;SDS011;29654;50.784;20.604;2023-05-10T07:54:29;3.22;;;2.00;;
43990;SDS011;29654;50.784;20.604;2023-05-10T07:59:32;1.88;;;1.77;;
43990;SDS011;29654;50.784;20.604;2023-05-10T08:04:34;2.55;;;2.00;;
43990;SDS011;29654;50.784;20.604;2023-05-10T08:09:38;2.22;;;1.90;;
43990;SDS011;29654;50.784;20.604;2023-05-10T08:14:41;2.45;;;1.77;;
43990;SDS011;29654;50.784;20.604;2023-05-10T08:19:44;3.70;;;2.03;;
43990;SDS011;29654;50.784;20.604;2023-05-10T08:24:48;1.95;;;1.85;;
43990;SDS011;29654;50.784;20.604;2023-05-10T08:29:51;2.72;;;2.33;;
43990;SDS011;29654;50.784;20.604;2023-05-10T08:34:53;2.00;;;1.80;;
43990;SDS011;29654;50.784;20.604;2023-05-10T08:39:58;2.60;;;2.05;;
43990;SDS011;29654;50.784;20.604;2023-05-10T08:45:00;1.85;;;1.73;;
43990;SDS011;29654;50.784;20.604;2023-05-10T08:50:04;2.53;;;1.90;;
43990;SDS011;29654;50.784;20.604;2023-05-10T08:55:10;3.15;;;2.20;;
43990;SDS011;29654;50.784;20.604;2023-05-10T09:00:13;2.00;;;1.90;;
43990;SDS011;29654;50.784;20.604;2023-05-10T09:05:16;2.05;;;1.77;;
43990;SDS011;29654;50.784;20.604;2023-05-10T09:10:21;2.28;;;1.55;;
43990;SDS011;29654;50.784;20.604;2023-05-10T09:15:26;3.00;;;1.90;;
43990;SDS011;29654;50.784;20.604;2023-05-10T09:20:28;2.33;;;1.67;;
43990;SDS011;29654;50.784;20.604;2023-05-10T09:25:32;2.63;;;2.00;;
43990;SDS011;29654;50.784;20.604;2023-05-10T09:30:35;2.63;;;1.63;;
43990;SDS011;29654;50.784;20.604;2023-05-10T09:35:38;3.63;;;1.92;;
43990;SDS011;29654;50.784;20.604;2023-05-10T09:40:42;2.53;;;1.77;;
43990;SDS011;29654;50.784;20.604;2023-05-10T09:45:56;1.73;;;1.63;;
43990;SDS011;29654;50.784;20.604;2023-05-10T09:50:58;2.08;;;1.88;;
43990;SDS011;29654;50.784;20.604;2023-05-10T09:56:03;2.58;;;2.05;;
43990;SDS011;29654;50.784;20.604;2023-05-10T10:01:06;1.73;;;1.63;;
43990;SDS011;29654;50.784;20.604;2023-05-10T10:06:18;3.05;;;1.92;;
43990;SDS011;29654;50.784;20.604;2023-05-10T10:11:22;3.08;;;1.67;;
43990;SDS011;29654;50.784;20.604;2023-05-10T10:16:26;3.25;;;1.80;;
43990;SDS011;29654;50.784;20.604;2023-05-10T10:21:31;1.90;;;1.67;;
43990;SDS011;29654;50.784;20.604;2023-05-10T10:26:35;1.83;;;1.63;;
43990;SDS011;29654;50.784;20.604;2023-05-10T10:31:41;2.30;;;1.85;;
43990;SDS011;29654;50.784;20.604;2023-05-10T10:36:51;2.25;;;2.05;;
43990;SDS011;29654;50.784;20.604;2023-05-10T10:41:55;2.33;;;1.73;;
43990;SDS011;29654;50.784;20.604;2023-05-10T10:52:25;1.60;;;1.50;;
43990;SDS011;29654;50.784;20.604;2023-05-10T10:57:33;2.13;;;1.65;;
43990;SDS011;29654;50.784;20.604;2023-05-10T11:02:46;2.28;;;1.90;;
43990;SDS011;29654;50.784;20.604;2023-05-10T11:07:51;2.15;;;1.95;;
43990;SDS011;29654;50.784;20.604;2023-05-10T11:13:00;2.22;;;1.65;;
43990;SDS011;29654;50.784;20.604;2023-05-10T11:18:17;3.75;;;2.03;;
43990;SDS011;29654;50.784;20.604;2023-05-10T11:23:21;2.17;;;1.90;;
43990;SDS011;29654;50.784;20.604;2023-05-10T11:28:25;3.78;;;2.25;;
43990;SDS011;29654;50.784;20.604;2023-05-10T11:33:28;1.92;;;1.48;;
43990;SDS011;29654;50.784;20.604;2023-05-10T11:38:32;3.40;;;2.17;;
43990;SDS011;29654;50.784;20.604;2023-05-10T11:43:36;2.47;;;1.85;;
43990;SDS011;29654;50.784;20.604;2023-05-10T11:48:39;1.90;;;1.65;;
43990;SDS011;29654;50.784;20.604;2023-05-10T11:53:43;2.33;;;1.83;;
43990;SDS011;29654;50.784;20.604;2023-05-10T11:58:52;1.90;;;1.80;;
43990;SDS011;29654;50.784;20.604;2023-05-10T12:03:56;2.70;;;1.50;;
43990;SDS011;29654;50.784;20.604;2023-05-10T12:09:01;2.85;;;1.67;;
43990;SDS011;29654;50.784;20.604;2023-05-10T12:14:10;1.77;;;1.67;;
43990;SDS011;29654;50.784;20.604;2023-05-10T12:19:12;3.15;;;1.83;;
43990;SDS011;29654;50.784;20.604;2023-05-10T12:24:21;1.88;;;1.77;;
43990;SDS011;29654;50.784;20.604;2023-05-10T12:29:26;3.03;;;2.08;;
43990;SDS011;29654;50.784;20.604;2023-05-10T12:34:32;2.90;;;1.95;;
43990;SDS011;29654;50.784;20.604;2023-05-10T12:39:38;2.88;;;1.50;;
43990;SDS011;29654;50.784;20.604;2023-05-10T12:44:43;2.05;;;1.88;;
43990;SDS011;29654;50.784;20.604;2023-05-10T12:49:46;1.88;;;1.77;;
43990;SDS011;29654;50.784;20.604;2023-05-10T12:54:48;1.70;;;1.60;;
43990;SDS011;29654;50.784;20.604;2023-05-10T12:59:52;2.63;;;1.85;;
43990;SDS011;29654;50.784;20.604;2023-05-10T13:04:55;1.60;;;1.50;;
43990;SDS011;29654;50.784;20.604;2023-05-10T13:09:58;2.28;;;1.75;;
43990;SDS011;29654;50.784;20.604;2023-05-10T13:15:02;1.75;;;1.65;;
43990;SDS011;29654;50.784;20.604;2023-05-10T13:20:06;1.45;;;1.35;;
43990;SDS011;29654;50.784;20.604;2023-05-10T13:25:09;2.75;;;1.80;;
43990;SDS011;29654;50.784;20.604;2023-05-10T13:30:14;2.30;;;1.70;;
43990;SDS011;29654;50.784;20.604;2023-05-10T13:35:17;2.55;;;1.40;;
43990;SDS011;29654;50.784;20.604;2023-05-10T13:40:19;3.58;;;1.45;;
43990;SDS011;29654;50.784;20.604;2023-05-10T13:45:23;1.58;;;1.48;;
43990;SDS011;29654;50.784;20.604;2023-05-10T13:50:26;2.00;;;1.52;;
43990;SDS011;29654;50.784;20.604;2023-05-10T13:55:28;1.60;;;1.50;;
43990;SDS011;29654;50.784;20.604;2023-05-10T14:00:32;2.53;;;1.48;;
43990;SDS011;29654;50.784;20.604;2023-05-10T14:05:35;1.50;;;1.40;;
43990;SDS011;29654;50.784;20.604;2023-05-10T14:10:38;3.35;;;1.58;;
43990;SDS011;29654;50.784;20.604;2023-05-10T14:15:42;1.88;;;1.42;;
43990;SDS011;29654;50.784;20.604;2023-05-10T14:20:45;3.05;;;1.70;;
43990;SDS011;29654;50.784;20.604;2023-05-10T14:25:47;1.55;;;1.45;;
43990;SDS011;29654;50.784;20.604;2023-05-10T14:30:52;1.55;;;1.45;;
43990;SDS011;29654;50.784;20.604;2023-05-10T14:35:55;1.73;;;1.40;;
43990;SDS011;29654;50.784;20.604;2023-05-10T14:40:58;2.30;;;1.52;;
43990;SDS011;29654;50.784;20.604;2023-05-10T14:46:02;2.05;;;1.40;;
43990;SDS011;29654;50.784;20.604;2023-05-10T14:51:05;3.92;;;1.83;;
43990;SDS011;29654;50.784;20.604;2023-05-10T14:56:08;1.80;;;1.70;;
43990;SDS011;29654;50.784;20.604;2023-05-10T15:01:12;1.45;;;1.35;;
43990;SDS011;29654;50.784;20.604;2023-05-10T15:06:14;1.58;;;1.48;;
43990;SDS011;29654;50.784;20.604;2023-05-10T15:11:18;1.25;;;1.23;;
43990;SDS011;29654;50.784;20.604;2023-05-10T15:16:22;1.70;;;1.50;;
43990;SDS011;29654;50.784;20.604;2023-05-10T15:21:24;1.42;;;1.33;;
43990;SDS011;29654;50.784;20.604;2023-05-10T15:26:27;2.58;;;1.60;;
43990;SDS011;29654;50.784;20.604;2023-05-10T15:31:31;1.80;;;1.50;;
43990;SDS011;29654;50.784;20.604;2023-05-10T15:36:59;1.75;;;1.65;;
43990;SDS011;29654;50.784;20.604;2023-05-10T15:42:03;1.52;;;1.42;;
43990;SDS011;29654;50.784;20.604;2023-05-10T15:47:07;2.03;;;1.83;;
43990;SDS011;29654;50.784;20.604;2023-05-10T15:52:09;1.50;;;1.40;;
43990;SDS011;29654;50.784;20.604;2023-05-10T15:57:12;1.67;;;1.48;;
43990;SDS011;29654;50.784;20.604;2023-05-10T16:02:16;1.90;;;1.50;;
43990;SDS011;29654;50.784;20.604;2023-05-10T16:07:19;2.15;;;1.55;;
43990;SDS011;29654;50.784;20.604;2023-05-10T16:12:21;1.88;;;1.70;;
43990;SDS011;29654;50.784;20.604;2023-05-10T16:17:26;1.63;;;1.52;;
43990;SDS011;29654;50.784;20.604;2023-05-10T16:22:28;3.05;;;2.00;;
43990;SDS011;29654;50.784;20.604;2023-05-10T16:27:31;2.25;;;1.75;;
43990;SDS011;29654;50.784;20.604;2023-05-10T16:32:35;1.92;;;1.50;;
43990;SDS011;29654;50.784;20.604;2023-05-10T16:37:37;2.78;;;1.77;;
43990;SDS011;29654;50.784;20.604;2023-05-10T16:42:40;2.53;;;1.70;;
43990;SDS011;29654;50.784;20.604;2023-05-10T16:47:44;2.75;;;2.05;;
43990;SDS011;29654;50.784;20.604;2023-05-10T16:52:47;2.45;;;1.83;;
43990;SDS011;29654;50.784;20.604;2023-05-10T16:57:50;2.45;;;1.73;;
43990;SDS011;29654;50.784;20.604;2023-05-10T17:02:59;2.38;;;1.83;;
43990;SDS011;29654;50.784;20.604;2023-05-10T17:08:01;4.60;;;2.53;;
43990;SDS011;29654;50.784;20.604;2023-05-10T17:13:04;2.00;;;1.48;;
43990;SDS011;29654;50.784;20.604;2023-05-10T17:18:08;2.67;;;1.67;;
43990;SDS011;29654;50.784;20.604;2023-05-10T17:23:11;2.28;;;1.63;;
43990;SDS011;29654;50.784;20.604;2023-05-10T17:28:13;2.15;;;1.88;;
43990;SDS011;29654;50.784;20.604;2023-05-10T17:33:17;2.20;;;1.80;;
43990;SDS011;29654;50.784;20.604;2023-05-10T17:38:20;2.50;;;2.30;;
43990;SDS011;29654;50.784;20.604;2023-05-10T17:43:23;3.90;;;2.45;;
43990;SDS011;29654;50.784;20.604;2023-05-10T17:48:27;4.00;;;3.42;;
43990;SDS011;29654;50.784;20.604;2023-05-10T17:53:30;3.13;;;2.05;;
43990;SDS011;29654;50.784;20.604;2023-05-10T17:58:32;3.22;;;2.05;;
43990;SDS011;29654;50.784;20.604;2023-05-10T18:03:38;7.82;;;2.40;;
43990;SDS011;29654;50.784;20.604;2023-05-10T18:08:41;2.85;;;1.90;;
43990;SDS011;29654;50.784;20.604;2023-05-10T18:13:44;6.88;;;4.90;;
43990;SDS011;29654;50.784;20.604;2023-05-10T18:18:47;6.82;;;4.90;;
43990;SDS011;29654;50.784;20.604;2023-05-10T18:23:50;5.80;;;5.20;;
43990;SDS011;29654;50.784;20.604;2023-05-10T18:28:53;2.80;;;2.47;;
43990;SDS011;29654;50.784;20.604;2023-05-10T18:33:57;4.47;;;3.13;;
43990;SDS011;29654;50.784;20.604;2023-05-10T18:38:59;4.90;;;4.13;;
43990;SDS011;29654;50.784;20.604;2023-05-10T18:44:02;6.13;;;4.28;;
43990;SDS011;29654;50.784;20.604;2023-05-10T18:49:06;5.55;;;3.78;;
43990;SDS011;29654;50.784;20.604;2023-05-10T18:54:09;7.68;;;4.65;;
43990;SDS011;29654;50.784;20.604;2023-05-10T18:59:11;5.03;;;3.83;;
43990;SDS011;29654;50.784;20.604;2023-05-10T19:04:16;3.92;;;3.42;;
43990;SDS011;29654;50.784;20.604;2023-05-10T19:09:18;5.10;;;3.83;;
43990;SDS011;29654;50.784;20.604;2023-05-10T19:14:21;5.47;;;4.43;;
43990;SDS011;29654;50.784;20.604;2023-05-10T19:19:25;5.55;;;4.63;;
43990;SDS011;29654;50.784;20.604;2023-05-10T19:24:28;4.78;;;3.75;;
43990;SDS011;29654;50.784;20.604;2023-05-10T19:29:31;5.53;;;3.72;;
43990;SDS011;29654;50.784;20.604;2023-05-10T19:34:35;4.07;;;2.97;;
43990;SDS011;29654;50.784;20.604;2023-05-10T19:39:38;3.95;;;3.30;;
43990;SDS011;29654;50.784;20.604;2023-05-10T19:44:40;3.00;;;2.60;;
43990;SDS011;29654;50.784;20.604;2023-05-10T19:49:45;3.20;;;2.67;;
43990;SDS011;29654;50.784;20.604;2023-05-10T19:54:48;3.65;;;3.03;;
43990;SDS011;29654;50.784;20.604;2023-05-10T19:59:50;2.55;;;2.35;;
43990;SDS011;29654;50.784;20.604;2023-05-10T20:04:54;4.13;;;2.85;;
43990;SDS011;29654;50.784;20.604;2023-05-10T20:09:57;6.45;;;3.55;;
43990;SDS011;29654;50.784;20.604;2023-05-10T20:15:00;5.45;;;3.47;;
43990;SDS011;29654;50.784;20.604;2023-05-10T20:20:04;3.78;;;3.03;;
43990;SDS011;29654;50.784;20.604;2023-05-10T20:25:08;5.18;;;2.90;;
43990;SDS011;29654;50.784;20.604;2023-05-10T20:30:12;3.90;;;3.40;;
43990;SDS011;29654;50.784;20.604;2023-05-10T20:35:16;4.65;;;3.40;;
43990;SDS011;29654;50.784;20.604;2023-05-10T20:40:18;4.63;;;3.35;;
43990;SDS011;29654;50.784;20.604;2023-05-10T20:45:21;4.85;;;3.30;;
43990;SDS011;29654;50.784;20.604;2023-05-10T20:50:25;4.45;;;3.80;;
43990;SDS011;29654;50.784;20.604;2023-05-10T20:55:28;2.85;;;2.65;;
43990;SDS011;29654;50.784;20.604;2023-05-10T21:00:31;5.90;;;3.10;;
43990;SDS011;29654;50.784;20.604;2023-05-10T21:05:35;5.45;;;3.28;;
43990;SDS011;29654;50.784;20.604;2023-05-10T21:10:37;5.15;;;3.30;;
43990;SDS011;29654;50.784;20.604;2023-05-10T21:15:40;6.25;;;3.50;;
43990;SDS011;29654;50.784;20.604;2023-05-10T21:20:44;8.10;;;3.50;;
43990;SDS011;29654;50.784;20.604;2023-05-10T21:25:46;7.65;;;3.40;;
43990;SDS011;29654;50.784;20.604;2023-05-10T21:30:49;3.95;;;2.63;;
43990;SDS011;29654;50.784;20.604;2023-05-10T21:35:53;3.00;;;2.55;;
43990;SDS011;29654;50.784;20.604;2023-05-10T21:40:57;3.47;;;2.58;;
43990;SDS011;29654;50.784;20.604;2023-05-10T21:45:59;3.88;;;2.67;;
43990;SDS011;29654;50.784;20.604;2023-05-10T21:51:03;5.47;;;2.70;;
43990;SDS011;29654;50.784;20.604;2023-05-10T21:56:06;3.97;;;2.50;;
43990;SDS011;29654;50.784;20.604;2023-05-10T22:01:09;4.68;;;2.55;;
43990;SDS011;29654;50.784;20.604;2023-05-10T22:06:12;3.50;;;3.20;;
43990;SDS011;29654;50.784;20.604;2023-05-10T22:11:15;3.78;;;2.55;;
43990;SDS011;29654;50.784;20.604;2023-05-10T22:16:18;4.22;;;3.15;;
43990;SDS011;29654;50.784;20.604;2023-05-10T22:21:22;5.28;;;2.90;;
43990;SDS011;29654;50.784;20.604;2023-05-10T22:26:24;2.80;;;2.60;;
43990;SDS011;29654;50.784;20.604;2023-05-10T22:31:27;4.15;;;2.58;;
43990;SDS011;29654;50.784;20.604;2023-05-10T22:36:32;4.10;;;2.70;;
43990;SDS011;29654;50.784;20.604;2023-05-10T22:41:34;4.13;;;2.72;;
43990;SDS011;29654;50.784;20.604;2023-05-10T22:46:37;5.57;;;2.95;;
43990;SDS011;29654;50.784;20.604;2023-05-10T22:51:41;5.13;;;3.08;;
43990;SDS011;29654;50.784;20.604;2023-05-10T22:56:43;4.00;;;2.85;;
43990;SDS011;29654;50.784;20.604;2023-05-10T23:01:46;3.35;;;2.75;;
43990;SDS011;29654;50.784;20.604;2023-05-10T23:06:51;6.88;;;2.70;;
43990;SDS011;29654;50.784;20.604;2023-05-10T23:11:53;4.68;;;2.70;;
43990;SDS011;29654;50.784;20.604;2023-05-10T23:16:56;4.05;;;2.60;;
43990;SDS011;29654;50.784;20.604;2023-05-10T23:22:00;4.35;;;2.47;;
43990;SDS011;29654;50.784;20.604;2023-05-10T23:27:03;3.17;;;2.67;;
43990;SDS011;29654;50.784;20.604;2023-05-10T23:32:06;2.90;;;2.53;;
43990;SDS011;29654;50.784;20.604;2023-05-10T23:37:10;4.63;;;2.85;;
43990;SDS011;29654;50.784;20.604;2023-05-10T23:42:13;4.32;;;2.65;;
43990;SDS011;29654;50.784;20.604;2023-05-10T23:47:15;2.83;;;2.38;;
43990;SDS011;29654;50.784;20.604;2023-05-10T23:52:19;3.92;;;2.80;;
43990;SDS011;29654;50.784;20.604;2023-05-10T23:57:24;3.78;;;2.38;;
